Time,TemperatureF,DewpointF,PressureIn,WindDirection,WindDirectionDegrees,WindSpeedMPH,WindSpeedGustMPH,Humidity,HourlyPrecipIn,Conditions,Clouds,dailyrainin,SoftwareType,DateUTC
2013-03-11 00:03:00,37.0,34.0,29.61,North,1,0.0,2.0,87,0.00,,,0.66,,2013-03-11 05:03:00,
2013-03-11 00:12:00,37.0,34.0,29.61,North,1,0.0,2.0,87,0.00,,,0.66,,2013-03-11 05:12:00,
2013-03-11 00:22:00,37.0,34.0,29.61,NNE,18,0.0,1.0,87,0.00,,,0.65,,2013-03-11 05:22:00,
2013-03-11 00:32:00,35.0,31.0,29.60,NW,326,1.0,2.0,86,0.00,,,0.64,,2013-03-11 05:32:00,
2013-03-11 00:42:00,35.0,31.0,29.60,NW,326,1.0,2.0,86,0.00,,,0.64,,2013-03-11 05:42:00,
2013-03-11 00:52:00,36.0,32.0,29.59,NNW,337,1.0,2.0,86,0.00,,,0.64,,2013-03-11 05:52:00,
2013-03-11 01:02:00,36.0,32.0,29.59,NW,314,0.0,2.0,86,0.00,,,0.63,,2013-03-11 06:02:00,
2013-03-11 01:12:00,36.0,32.0,29.59,NW,314,0.0,2.0,86,0.00,,,0.63,,2013-03-11 06:12:00,
2013-03-11 01:22:00,35.0,31.0,29.59,NNW,329,0.0,2.0,86,0.00,,,0.63,,2013-03-11 06:22:00,
2013-03-11 01:32:00,35.0,31.0,29.59,NNW,329,0.0,2.0,86,0.00,,,0.63,,2013-03-11 06:32:00,
2013-03-11 01:42:00,35.0,31.0,29.59,NNW,329,0.0,2.0,86,0.00,,,0.63,,2013-03-11 06:42:00,
2013-03-11 01:53:00,35.0,31.0,29.59,NW,315,0.0,2.0,86,0.00,,,0.63,,2013-03-11 06:53:00,
2013-03-11 02:02:00,35.0,31.0,29.60,WNW,282,0.0,3.0,86,0.00,,,0.63,,2013-03-11 07:02:00,
2013-03-11 02:12:00,36.0,32.0,29.60,SW,225,0.0,1.0,86,0.01,,,0.63,,2013-03-11 07:12:00,
2013-03-11 02:22:00,36.0,32.0,29.60,SW,225,0.0,1.0,86,0.01,,,0.63,,2013-03-11 07:22:00,
2013-03-11 02:32:00,36.0,32.0,29.60,North,354,0.0,1.0,86,0.01,,,0.63,,2013-03-11 07:32:00,
2013-03-11 02:42:00,36.0,32.0,29.60,North,354,0.0,1.0,86,0.01,,,0.63,,2013-03-11 07:42:00,
2013-03-11 02:52:00,35.0,31.0,29.59,NE,47,0.0,2.0,86,0.01,,,0.63,,2013-03-11 07:52:00,
2013-03-11 03:02:00,35.0,31.0,29.58,West,270,0.0,1.0,86,0.01,,,0.63,,2013-03-11 08:02:00,
2013-03-11 03:12:00,35.0,31.0,29.58,West,270,0.0,1.0,86,0.01,,,0.63,,2013-03-11 08:12:00,
2013-03-11 03:22:00,35.0,31.0,29.58,West,270,0.0,1.0,86,0.01,,,0.63,,2013-03-11 08:22:00,
2013-03-11 03:32:00,36.0,31.0,29.58,South,181,1.0,2.0,82,0.00,,,0.63,,2013-03-11 08:32:00,
2013-03-11 03:42:00,36.0,31.0,29.58,South,181,1.0,2.0,82,0.00,,,0.63,,2013-03-11 08:42:00,
2013-03-11 03:52:00,39.0,34.0,29.57,South,182,5.0,8.0,81,0.00,,,0.63,,2013-03-11 08:52:00,
2013-03-11 04:02:00,39.0,34.0,29.57,SSW,200,4.0,9.0,81,0.00,,,0.63,,2013-03-11 09:02:00,
2013-03-11 04:12:00,39.0,34.0,29.57,SSW,200,4.0,9.0,81,0.00,,,0.63,,2013-03-11 09:12:00,
2013-03-11 04:22:00,39.0,33.0,29.57,South,183,9.0,11.0,79,0.00,,,0.61,,2013-03-11 09:22:00,
2013-03-11 04:32:00,39.0,33.0,29.57,SSW,196,7.0,12.0,79,0.00,,,0.59,,2013-03-11 09:32:00,
2013-03-11 04:42:00,39.0,33.0,29.57,SSW,196,7.0,12.0,79,0.00,,,0.59,,2013-03-11 09:42:00,
2013-03-11 04:52:00,38.0,32.0,29.57,SSW,193,8.0,15.0,79,0.00,,,0.56,,2013-03-11 09:52:00,
2013-03-11 05:02:00,38.0,32.0,29.57,SSW,193,8.0,15.0,79,0.00,,,0.56,,2013-03-11 10:02:00,
2013-03-11 05:12:00,38.0,32.0,29.57,SSW,193,8.0,15.0,79,0.00,,,0.56,,2013-03-11 10:12:00,
2013-03-11 05:22:00,38.0,32.0,29.57,SSW,192,7.0,11.0,79,0.00,,,0.53,,2013-03-11 10:22:00,
2013-03-11 05:33:00,38.0,32.0,29.57,SSW,192,7.0,11.0,79,0.00,,,0.53,,2013-03-11 10:33:00,
2013-03-11 05:42:00,38.0,32.0,29.57,SSW,192,7.0,11.0,79,0.00,,,0.53,,2013-03-11 10:42:00,
2013-03-11 05:52:00,37.0,31.0,29.55,SW,233,2.0,8.0,79,0.00,,,0.53,,2013-03-11 10:52:00,
2013-03-11 06:02:00,37.0,31.0,29.55,SW,236,3.0,8.0,79,0.00,,,0.53,,2013-03-11 11:02:00,
2013-03-11 06:12:00,37.0,31.0,29.55,SW,236,3.0,8.0,79,0.00,,,0.53,,2013-03-11 11:12:00,
2013-03-11 06:22:00,36.0,30.0,29.55,SW,231,2.0,8.0,79,0.00,,,0.53,,2013-03-11 11:22:00,
2013-03-11 06:32:00,36.0,30.0,29.55,SW,223,2.0,5.0,79,0.00,,,0.53,,2013-03-11 11:32:00,
2013-03-11 06:42:00,36.0,30.0,29.55,SW,223,2.0,5.0,79,0.00,,,0.53,,2013-03-11 11:42:00,
2013-03-11 06:52:00,36.0,30.0,29.58,SW,222,1.0,4.0,80,0.00,,,0.53,,2013-03-11 11:52:00,
2013-03-11 07:02:00,35.0,29.0,29.59,West,269,3.0,8.0,80,0.00,,,0.53,,2013-03-11 12:02:00,
2013-03-11 07:12:00,35.0,29.0,29.59,West,269,3.0,8.0,80,0.00,,,0.53,,2013-03-11 12:12:00,
2013-03-11 07:22:00,35.0,29.0,29.59,West,269,3.0,8.0,80,0.00,,,0.53,,2013-03-11 12:22:00,
2013-03-11 07:32:00,35.0,29.0,29.60,WSW,253,1.0,4.0,80,0.00,,,0.52,,2013-03-11 12:32:00,
2013-03-11 07:42:00,35.0,29.0,29.60,WSW,253,1.0,4.0,80,0.00,,,0.52,,2013-03-11 12:42:00,
2013-03-11 07:53:00,35.0,29.0,29.60,SW,232,1.0,4.0,80,0.00,,,0.51,,2013-03-11 12:53:00,
2013-03-11 08:02:00,34.0,28.0,29.60,West,273,2.0,5.0,80,0.00,,,0.50,,2013-03-11 13:02:00,
2013-03-11 08:12:00,34.0,28.0,29.60,West,273,2.0,5.0,80,0.00,,,0.50,,2013-03-11 13:12:00,
2013-03-11 08:22:00,34.0,28.0,29.59,WNW,282,3.0,7.0,80,0.00,,,0.48,,2013-03-11 13:22:00,
2013-03-11 08:32:00,34.0,28.0,29.58,WNW,298,2.0,7.0,80,0.00,,,0.48,,2013-03-11 13:32:00,
2013-03-11 08:42:00,34.0,28.0,29.58,WNW,298,2.0,7.0,80,0.00,,,0.48,,2013-03-11 13:42:00,
2013-03-11 08:52:00,35.0,29.0,29.59,NW,311,0.0,2.0,80,0.00,,,0.48,,2013-03-11 13:52:00,
2013-03-11 09:02:00,34.0,28.0,29.58,WNW,303,2.0,5.0,80,0.00,,,0.48,,2013-03-11 14:02:00,
2013-03-11 09:12:00,34.0,28.0,29.58,WNW,303,2.0,5.0,80,0.00,,,0.48,,2013-03-11 14:12:00,
2013-03-11 09:22:00,35.0,29.0,29.58,NW,311,0.0,4.0,80,0.00,,,0.47,,2013-03-11 14:22:00,
2013-03-11 09:32:00,35.0,29.0,29.57,NW,319,0.0,2.0,80,0.00,,,0.47,,2013-03-11 14:32:00,
2013-03-11 09:52:00,35.0,29.0,29.57,SE,141,0.0,2.0,80,0.00,,,0.46,,2013-03-11 14:52:00,
2013-03-11 10:02:00,35.0,29.0,29.57,WNW,285,2.0,4.0,80,0.00,,,0.46,,2013-03-11 15:02:00,
2013-03-11 10:12:00,35.0,29.0,29.57,WNW,285,2.0,4.0,80,0.00,,,0.46,,2013-03-11 15:12:00,
2013-03-11 10:22:00,36.0,30.0,29.55,NW,308,2.0,5.0,79,0.00,,,0.46,,2013-03-11 15:22:00,
2013-03-11 10:32:00,36.0,29.0,29.55,WNW,298,3.0,5.0,74,0.00,,,0.46,,2013-03-11 15:32:00,
2013-03-11 10:42:00,36.0,29.0,29.55,WNW,298,3.0,5.0,74,0.00,,,0.46,,2013-03-11 15:42:00,
2013-03-11 10:53:00,36.0,29.0,29.55,WNW,298,3.0,5.0,74,0.00,,,0.46,,2013-03-11 15:53:00,
2013-03-11 11:02:00,35.0,27.0,29.55,West,278,2.0,5.0,71,0.00,,,0.46,,2013-03-11 16:02:00,
2013-03-11 11:12:00,35.0,27.0,29.55,West,278,2.0,5.0,71,0.00,,,0.46,,2013-03-11 16:12:00,
2013-03-11 11:22:00,36.0,26.0,29.54,NW,307,2.0,4.0,67,0.00,,,0.46,,2013-03-11 16:22:00,
2013-03-11 11:32:00,37.0,27.0,29.54,WNW,282,3.0,4.0,66,0.00,,,0.46,,2013-03-11 16:32:00,
2013-03-11 11:42:00,37.0,27.0,29.54,WNW,282,3.0,4.0,66,0.00,,,0.46,,2013-03-11 16:42:00,
2013-03-11 11:52:00,37.0,26.0,29.54,WSW,258,1.0,4.0,65,0.01,,,0.47,,2013-03-11 16:52:00,
2013-03-11 12:02:00,36.0,26.0,29.53,West,270,2.0,4.0,67,0.01,,,0.46,,2013-03-11 17:02:00,
2013-03-11 12:14:00,36.0,26.0,29.53,West,270,2.0,4.0,67,0.01,,,0.46,,2013-03-11 17:14:00,
2013-03-11 12:25:00,37.0,27.0,29.54,WNW,290,3.0,5.0,66,0.01,,,0.46,,2013-03-11 17:25:00,
2013-03-11 12:34:00,37.0,27.0,29.53,WNW,290,2.0,5.0,66,0.01,,,0.46,,2013-03-11 17:34:00,
2013-03-11 12:42:00,37.0,27.0,29.53,WNW,290,2.0,5.0,66,0.01,,,0.46,,2013-03-11 17:42:00,
2013-03-11 12:52:00,36.0,26.0,29.54,SW,236,2.0,4.0,67,0.00,,,0.46,,2013-03-11 17:52:00,
2013-03-11 13:02:00,36.0,27.0,29.53,SW,232,1.0,4.0,70,0.00,,,0.46,,2013-03-11 18:02:00,
2013-03-11 13:12:00,36.0,27.0,29.53,SW,232,1.0,4.0,70,0.00,,,0.46,,2013-03-11 18:12:00,
2013-03-11 13:22:00,36.0,28.0,29.52,WSW,239,1.0,4.0,71,0.00,,,0.46,,2013-03-11 18:22:00,
2013-03-11 13:32:00,36.0,28.0,29.53,West,266,3.0,6.0,72,0.00,,,0.46,,2013-03-11 18:32:00,
2013-03-11 13:42:00,36.0,28.0,29.53,West,266,3.0,6.0,72,0.00,,,0.46,,2013-03-11 18:42:00,
2013-03-11 13:53:00,36.0,28.0,29.53,WSW,252,2.0,6.0,73,0.00,,,0.46,,2013-03-11 18:53:00,
2013-03-11 14:02:00,35.0,27.0,29.52,West,274,4.0,7.0,73,0.00,,,0.44,,2013-03-11 19:02:00,
2013-03-11 14:12:00,35.0,27.0,29.52,West,274,4.0,7.0,73,0.00,,,0.44,,2013-03-11 19:12:00,
2013-03-11 14:22:00,35.0,28.0,29.51,West,276,3.0,9.0,74,0.00,,,0.40,,2013-03-11 19:22:00,
2013-03-11 14:32:00,35.0,28.0,29.51,West,276,3.0,9.0,74,0.00,,,0.40,,2013-03-11 19:32:00,
2013-03-11 14:42:00,35.0,28.0,29.51,West,276,3.0,9.0,74,0.00,,,0.40,,2013-03-11 19:42:00,
2013-03-11 14:53:00,34.0,27.0,29.50,WNW,299,4.0,9.0,75,0.00,,,0.35,,2013-03-11 19:53:00,
2013-03-11 15:02:00,34.0,27.0,29.50,West,270,6.0,10.0,76,0.00,,,0.34,,2013-03-11 20:02:00,
2013-03-11 15:12:00,34.0,27.0,29.50,West,270,6.0,10.0,76,0.00,,,0.34,,2013-03-11 20:12:00,
2013-03-11 15:22:00,34.0,27.0,29.51,West,277,4.0,11.0,76,0.00,,,0.34,,2013-03-11 20:22:00,
2013-03-11 15:32:00,34.0,27.0,29.50,West,277,5.0,11.0,76,0.00,,,0.34,,2013-03-11 20:32:00,
2013-03-11 15:43:00,34.0,27.0,29.50,West,277,5.0,11.0,76,0.00,,,0.34,,2013-03-11 20:43:00,
2013-03-11 15:52:00,34.0,27.0,29.51,West,271,3.0,9.0,76,0.00,,,0.32,,2013-03-11 20:52:00,
2013-03-11 16:03:00,34.0,27.0,29.51,West,264,8.0,11.0,76,0.00,,,0.32,,2013-03-11 21:03:00,
2013-03-11 16:12:00,34.0,27.0,29.51,West,264,8.0,11.0,76,0.00,,,0.32,,2013-03-11 21:12:00,
2013-03-11 16:22:00,34.0,27.0,29.52,West,278,4.0,11.0,76,0.00,,,0.32,,2013-03-11 21:22:00,
2013-03-11 16:32:00,34.0,27.0,29.53,West,271,4.0,11.0,76,0.01,,,0.32,,2013-03-11 21:32:00,
2013-03-11 16:43:00,34.0,27.0,29.53,West,271,4.0,11.0,76,0.01,,,0.32,,2013-03-11 21:43:00,
2013-03-11 16:52:00,34.0,27.0,29.53,West,271,4.0,11.0,76,0.01,,,0.32,,2013-03-11 21:52:00,
2013-03-11 17:02:00,34.0,28.0,29.54,WNW,292,4.0,10.0,77,0.01,,,0.28,,2013-03-11 22:02:00,
2013-03-11 17:12:00,34.0,28.0,29.54,WNW,292,4.0,10.0,77,0.01,,,0.28,,2013-03-11 22:12:00,
2013-03-11 17:22:00,34.0,28.0,29.54,WNW,292,4.0,10.0,77,0.01,,,0.28,,2013-03-11 22:22:00,
2013-03-11 17:32:00,34.0,28.0,29.54,WNW,292,4.0,10.0,77,0.01,,,0.28,,2013-03-11 22:32:00,
2013-03-11 18:03:00,34.0,28.0,29.57,WSW,257,3.0,10.0,77,0.01,,,0.15,,2013-03-11 23:03:00,
2013-03-11 18:12:00,34.0,28.0,29.57,WSW,257,3.0,10.0,77,0.01,,,0.15,,2013-03-11 23:12:00,
2013-03-11 18:22:00,34.0,28.0,29.57,WSW,257,3.0,10.0,77,0.01,,,0.15,,2013-03-11 23:22:00,
2013-03-11 18:32:00,33.0,27.0,29.59,WSW,246,3.0,8.0,77,0.00,,,0.12,,2013-03-11 23:32:00,
2013-03-11 18:43:00,33.0,27.0,29.59,WSW,246,3.0,8.0,77,0.00,,,0.12,,2013-03-11 23:43:00,
2013-03-11 18:53:00,33.0,27.0,29.59,WSW,246,3.0,8.0,77,0.00,,,0.12,,2013-03-11 23:53:00,
2013-03-11 19:02:00,33.0,27.0,29.59,WSW,247,3.0,8.0,78,0.00,,,0.09,,2013-03-12 00:02:00,
2013-03-11 19:12:00,33.0,27.0,29.59,WSW,247,3.0,8.0,78,0.00,,,0.09,,2013-03-12 00:12:00,
2013-03-11 19:22:00,33.0,27.0,29.60,WSW,255,3.0,8.0,78,0.00,,,0.09,,2013-03-12 00:22:00,
2013-03-11 19:33:00,33.0,27.0,29.62,WSW,238,4.0,11.0,79,0.00,,,0.09,,2013-03-12 00:33:00,
2013-03-11 19:42:00,33.0,27.0,29.62,WSW,238,4.0,11.0,79,0.00,,,0.09,,2013-03-12 00:42:00,
2013-03-11 19:53:00,33.0,27.0,29.62,WSW,245,6.0,11.0,79,0.00,,,0.09,,2013-03-12 00:53:00,
2013-03-11 20:02:00,33.0,27.0,29.63,West,270,2.0,10.0,79,0.00,,,0.08,,2013-03-12 01:02:00,
2013-03-11 20:12:00,33.0,27.0,29.63,West,270,2.0,10.0,79,0.00,,,0.08,,2013-03-12 01:12:00,
2013-03-11 20:22:00,33.0,27.0,29.64,SSW,213,4.0,10.0,79,0.00,,,0.08,,2013-03-12 01:22:00,
2013-03-11 20:32:00,33.0,27.0,29.65,SW,219,4.0,9.0,78,0.00,,,0.07,,2013-03-12 01:32:00,
2013-03-11 20:42:00,33.0,27.0,29.65,SW,219,4.0,9.0,78,0.00,,,0.07,,2013-03-12 01:42:00,
2013-03-11 20:52:00,33.0,27.0,29.65,WSW,258,6.0,13.0,78,0.00,,,0.07,,2013-03-12 01:52:00,
2013-03-11 21:02:00,32.0,25.0,29.65,West,270,9.0,14.0,76,0.00,,,0.07,,2013-03-12 02:02:00,
2013-03-11 21:12:00,32.0,25.0,29.65,West,270,9.0,14.0,76,0.00,,,0.07,,2013-03-12 02:12:00,
2013-03-11 21:22:00,32.0,25.0,29.65,West,268,5.0,15.0,76,0.00,,,0.07,,2013-03-12 02:22:00,
2013-03-11 21:32:00,32.0,25.0,29.67,West,269,4.0,12.0,76,0.00,,,0.06,,2013-03-12 02:32:00,
2013-03-11 21:42:00,32.0,25.0,29.67,West,269,4.0,12.0,76,0.00,,,0.06,,2013-03-12 02:42:00,
2013-03-11 21:52:00,32.0,25.0,29.67,West,267,0.0,11.0,76,0.00,,,0.05,,2013-03-12 02:52:00,
2013-03-11 22:02:00,32.0,25.0,29.67,SW,225,0.0,3.0,76,0.00,,,0.05,,2013-03-12 03:02:00,
2013-03-11 22:12:00,32.0,25.0,29.67,SW,225,0.0,3.0,76,0.00,,,0.05,,2013-03-12 03:12:00,
2013-03-11 22:22:00,32.0,25.0,29.67,North,0,0.0,0.0,75,0.00,,,0.05,,2013-03-12 03:22:00,
2013-03-11 22:32:00,32.0,25.0,29.68,North,0,0.0,0.0,75,0.00,,,0.05,,2013-03-12 03:32:00,
2013-03-11 22:42:00,32.0,25.0,29.68,North,0,0.0,0.0,75,0.00,,,0.05,,2013-03-12 03:42:00,
2013-03-11 22:53:00,31.0,24.0,29.69,North,0,0.0,0.0,75,0.00,,,0.05,,2013-03-12 03:53:00,
2013-03-11 23:02:00,31.0,24.0,29.69,North,0,0.0,0.0,75,0.00,,,0.05,,2013-03-12 04:02:00,
2013-03-11 23:12:00,31.0,24.0,29.69,North,0,0.0,0.0,75,0.00,,,0.05,,2013-03-12 04:12:00,
2013-03-11 23:22:00,31.0,23.0,29.70,North,0,0.0,0.0,73,0.00,,,0.05,,2013-03-12 04:22:00,
2013-03-11 23:32:00,31.0,24.0,29.70,North,0,0.0,0.0,76,0.00,,,0.05,,2013-03-12 04:32:00,
2013-03-11 23:43:00,31.0,24.0,29.70,North,0,0.0,0.0,76,0.00,,,0.05,,2013-03-12 04:43:00,
2013-03-11 23:52:00,31.0,24.0,29.71,North,0,0.0,0.0,76,0.00,,,0.05,,2013-03-12 04:52:00,